Time;durP1;ratioP1;P1;durP2;ratioP2;P2;SDS_P1;SDS_P2;PMS_P1;PMS_P2;Temp;Humidity;BMP_temperature;BMP_pressure;BME280_temperature;BME280_humidity;BME280_pressure;Samples;Min_cycle;Max_cycle;Signal;HPM_P1;HPM_P2
2023/07/25 00:00:03;;;;;;;;;;;;;;;23.69;49.24;100093.16;5061601;28;20009;-85
2023/07/25 00:02:28;;;;;;;;;;;;;;;23.67;49.27;100098.19;5062914;28;19943;-85
2023/07/25 00:04:53;;;;;;;;;;;;;;;23.67;48.97;100103.66;5062062;28;20407;-85
2023/07/25 00:07:19;;;;;;;;;;;;;;;23.67;49.44;100109.13;5062617;28;20001;-85
2023/07/25 00:09:44;;;;;;;;;;;;;;;23.69;48.99;100102.16;5063973;28;20379;-84
2023/07/25 00:12:09;;;;;;;;;;;;;;;23.68;49.13;100100.56;5057934;28;20429;-84
2023/07/25 00:14:35;;;;;;;;;;;;;;;23.62;49.01;100104.72;5058137;28;20015;-85
2023/07/25 00:17:00;;;;;;;;;;;;;;;23.59;48.98;100093.69;5059488;28;19999;-85
2023/07/25 00:19:26;;;;;;;;;;;;;;;23.61;48.99;100089.44;5062362;28;19927;-86
2023/07/25 00:21:51;;;;;;;;;;;;;;;23.59;49.03;100089.00;5063063;28;19931;-84
2023/07/25 00:24:16;;;;;;;;;;;;;;;23.62;49.02;100087.50;5060717;28;19928;-85
2023/07/25 00:26:42;;;;;;;;;;;;;;;23.63;48.98;100081.69;5055878;28;19959;-85
2023/07/25 00:29:07;;;;;;;;;;;;;;;23.62;49.03;100085.56;5054349;28;19939;-84
2023/07/25 00:31:32;;;;;;;;;;;;;;;23.59;48.95;100094.47;5061260;28;19917;-84
2023/07/25 00:33:58;;;;;;;;;;;;;;;23.56;48.92;100095.16;5064395;28;19927;-84
2023/07/25 00:36:23;;;;;;;;;;;;;;;23.58;48.73;100092.91;5058946;28;20019;-85
2023/07/25 00:38:48;;;;;;;;;;;;;;;23.57;48.82;100094.03;5057626;28;19924;-85
2023/07/25 00:41:14;;;;;;;;;;;;;;;23.55;48.69;100088.09;5066339;28;19916;-84
2023/07/25 00:43:39;;;;;;;;;;;;;;;23.51;48.70;100087.97;5060593;28;20305;-85
2023/07/25 00:46:04;;;;;;;;;;;;;;;23.53;48.73;100090.41;5056143;28;19970;-85
2023/07/25 00:48:30;;;;;;;;;;;;;;;23.49;48.51;100086.75;5062667;28;19917;-84
2023/07/25 00:50:55;;;;;;;;;;;;;;;23.40;48.86;100086.13;5060105;28;19920;-85
2023/07/25 00:53:21;;;;;;;;;;;;;;;23.38;48.83;100091.94;5055228;28;20097;-85
2023/07/25 00:55:46;;;;;;;;;;;;;;;23.40;48.69;100091.59;5058059;28;20026;-85
2023/07/25 00:58:12;;;;;;;;;;;;;;;23.46;48.53;100096.44;5057790;28;19931;-85
2023/07/25 01:00:38;;;;;;;;;;;;;;;23.52;48.36;100102.47;5058732;28;19925;-85
2023/07/25 01:03:03;;;;;;;;;;;;;;;23.57;48.27;100113.19;5064170;28;19921;-84
2023/07/25 01:05:31;;;;;;;;;;;;;;;23.55;48.21;100100.97;5069264;28;19920;-86
2023/07/25 01:07:56;;;;;;;;;;;;;;;23.47;48.37;100102.72;5063424;28;19998;-84
2023/07/25 01:10:21;;;;;;;;;;;;;;;23.45;48.40;100113.22;5056807;28;19950;-84
2023/07/25 01:12:47;;;;;;;;;;;;;;;23.44;48.35;100115.16;5058520;28;20312;-84
2023/07/25 01:15:12;;;;;;;;;;;;;;;23.48;48.12;100118.75;5059655;28;19924;-84
2023/07/25 01:17:37;;;;;;;;;;;;;;;23.48;47.85;100118.75;5061408;28;20027;-85
2023/07/25 01:20:05;;;;;;;;;;;;;;;23.48;48.00;100110.56;5063370;28;19945;-84
2023/07/25 01:22:31;;;;;;;;;;;;;;;23.48;47.92;100120.69;5051702;28;20396;-85
2023/07/25 01:24:56;;;;;;;;;;;;;;;23.45;47.93;100118.66;5056149;28;19971;-85
2023/07/25 01:27:21;;;;;;;;;;;;;;;23.43;47.78;100134.63;5063122;28;19956;-85
2023/07/25 01:29:47;;;;;;;;;;;;;;;23.27;47.88;100131.06;5053020;28;19999;-84
2023/07/25 01:32:12;;;;;;;;;;;;;;;23.14;48.12;100133.81;5059872;28;19967;-83
2023/07/25 01:34:38;;;;;;;;;;;;;;;23.09;48.25;100142.28;5057559;28;19924;-84
2023/07/25 01:37:05;;;;;;;;;;;;;;;23.02;48.46;100133.88;5057571;28;19941;-84
2023/07/25 01:39:30;;;;;;;;;;;;;;;22.96;48.45;100132.53;5063165;28;19916;-83
2023/07/25 01:41:56;;;;;;;;;;;;;;;22.87;48.79;100142.81;5063868;28;20090;-85
2023/07/25 01:44:21;;;;;;;;;;;;;;;22.87;48.81;100137.34;5057588;28;19934;-84
2023/07/25 01:46:46;;;;;;;;;;;;;;;22.89;48.54;100144.03;5059752;28;19920;-83
2023/07/25 01:49:12;;;;;;;;;;;;;;;22.96;48.37;100153.59;5063311;28;20277;-84
2023/07/25 01:51:37;;;;;;;;;;;;;;;22.97;48.30;100158.69;5057441;28;20303;-84
2023/07/25 01:54:03;;;;;;;;;;;;;;;22.93;48.29;100160.53;5056727;28;19924;-83
2023/07/25 01:56:28;;;;;;;;;;;;;;;22.90;48.55;100159.28;5061864;28;20402;-83
2023/07/25 01:58:53;;;;;;;;;;;;;;;22.94;48.39;100158.59;5059942;28;19974;-83
2023/07/25 02:01:19;;;;;;;;;;;;;;;22.95;48.42;100155.50;5055116;28;19969;-83
2023/07/25 02:03:44;;;;;;;;;;;;;;;22.93;48.34;100160.53;5063471;28;19928;-84
2023/07/25 02:06:09;;;;;;;;;;;;;;;22.86;48.37;100160.34;5054902;28;19923;-84
2023/07/25 02:08:35;;;;;;;;;;;;;;;22.84;48.33;100166.16;5058160;28;20388;-83
2023/07/25 02:11:00;;;;;;;;;;;;;;;22.83;48.25;100159.09;5056833;28;20000;-84
2023/07/25 02:13:25;;;;;;;;;;;;;;;22.85;48.44;100169.66;5062524;28;20333;-84
2023/07/25 02:15:51;;;;;;;;;;;;;;;22.88;48.35;100175.22;5061635;28;20384;-83
2023/07/25 02:18:16;;;;;;;;;;;;;;;22.94;48.18;100175.78;5054298;28;19920;-83
2023/07/25 02:20:41;;;;;;;;;;;;;;;22.97;48.02;100177.81;5063998;28;19924;-83
2023/07/25 02:23:07;;;;;;;;;;;;;;;23.01;48.13;100172.47;5058053;28;20011;-84
2023/07/25 02:25:32;;;;;;;;;;;;;;;23.02;48.15;100185.00;5056079;28;19929;-84
2023/07/25 02:27:58;;;;;;;;;;;;;;;22.98;48.11;100173.97;5054774;28;19999;-84
2023/07/25 02:30:23;;;;;;;;;;;;;;;22.95;48.16;100177.38;5058854;28;19920;-84
2023/07/25 02:32:48;;;;;;;;;;;;;;;22.92;48.05;100189.00;5063699;28;19995;-84
2023/07/25 02:35:17;;;;;;;;;;;;;;;22.86;48.17;100193.09;5061566;28;19951;-86
2023/07/25 02:37:42;;;;;;;;;;;;;;;22.83;47.92;100194.59;5057818;28;19920;-85
2023/07/25 02:40:08;;;;;;;;;;;;;;;22.77;48.14;100197.84;5057930;28;20296;-84
2023/07/25 02:42:33;;;;;;;;;;;;;;;22.68;48.46;100208.13;5060327;28;20003;-84
2023/07/25 02:44:59;;;;;;;;;;;;;;;22.66;48.35;100194.81;5063806;28;19935;-84
2023/07/25 02:47:24;;;;;;;;;;;;;;;22.64;48.51;100193.56;5061245;28;19924;-85
2023/07/25 02:49:49;;;;;;;;;;;;;;;22.65;48.42;100192.44;5058990;28;19924;-84
2023/07/25 02:52:14;;;;;;;;;;;;;;;22.61;48.70;100187.63;5058509;28;19916;-84
2023/07/25 02:54:40;;;;;;;;;;;;;;;22.59;48.51;100203.56;5061980;28;19925;-84
2023/07/25 02:57:05;;;;;;;;;;;;;;;22.57;48.48;100213.22;5057996;28;19916;-83
2023/07/25 02:59:31;;;;;;;;;;;;;;;22.52;48.76;100216.97;5063104;28;20376;-83
2023/07/25 03:01:56;;;;;;;;;;;;;;;22.54;48.76;100220.16;5059740;28;19991;-83
2023/07/25 03:04:21;;;;;;;;;;;;;;;22.62;48.60;100226.63;5061554;28;19943;-84
2023/07/25 03:06:47;;;;;;;;;;;;;;;22.59;48.58;100221.88;5064368;28;19920;-83
2023/07/25 03:09:12;;;;;;;;;;;;;;;22.62;48.51;100223.91;5060502;28;19927;-84
2023/07/25 03:11:37;;;;;;;;;;;;;;;22.56;48.56;100225.28;5063355;28;19924;-83
2023/07/25 03:14:03;;;;;;;;;;;;;;;22.50;48.95;100219.25;5060667;28;19924;-84
2023/07/25 03:16:28;;;;;;;;;;;;;;;22.49;49.12;100225.88;5061448;28;20401;-84
2023/07/25 03:18:54;;;;;;;;;;;;;;;22.39;50.05;100218.09;5061127;28;19923;-84
2023/07/25 03:21:19;;;;;;;;;;;;;;;22.35;49.39;100222.66;5060067;28;19920;-83
2023/07/25 03:23:44;;;;;;;;;;;;;;;22.34;49.22;100226.53;5056675;28;20030;-83
2023/07/25 03:26:10;;;;;;;;;;;;;;;22.35;49.52;100217.19;5056989;28;19956;-83
2023/07/25 03:28:35;;;;;;;;;;;;;;;22.41;49.13;100218.56;5064012;28;19943;-83
2023/07/25 03:31:00;;;;;;;;;;;;;;;22.43;49.25;100224.47;5060575;28;19952;-83
2023/07/25 03:33:27;;;;;;;;;;;;;;;22.45;49.15;100238.59;5062082;28;19924;-82
2023/07/25 03:35:53;;;;;;;;;;;;;;;22.53;49.25;100240.41;5061294;28;19923;-83
2023/07/25 03:38:18;;;;;;;;;;;;;;;22.56;49.21;100239.72;5062111;28;19920;-83
2023/07/25 03:40:43;;;;;;;;;;;;;;;22.56;49.36;100233.47;5060436;28;20889;-82
2023/07/25 03:43:08;;;;;;;;;;;;;;;22.61;49.02;100231.31;5056405;28;19921;-83
2023/07/25 03:45:34;;;;;;;;;;;;;;;22.68;48.90;100243.63;5057115;28;20022;-82
2023/07/25 03:47:59;;;;;;;;;;;;;;;22.75;48.71;100252.03;5060677;28;19931;-82
2023/07/25 03:50:24;;;;;;;;;;;;;;;22.77;48.77;100249.75;5067220;28;20070;-83
2023/07/25 03:52:50;;;;;;;;;;;;;;;22.77;48.70;100252.47;5066484;28;19921;-82
2023/07/25 03:55:15;;;;;;;;;;;;;;;22.71;48.77;100241.00;5064956;28;20829;-83
2023/07/25 03:57:40;;;;;;;;;;;;;;;22.73;48.60;100240.66;5065085;28;20452;-82
2023/07/25 04:00:06;;;;;;;;;;;;;;;22.81;48.63;100247.94;5059000;28;19920;-82
2023/07/25 04:02:31;;;;;;;;;;;;;;;22.80;48.75;100254.53;5062044;28;20388;-82
2023/07/25 04:04:57;;;;;;;;;;;;;;;22.79;48.66;100251.00;5064001;28;19929;-82
2023/07/25 04:07:22;;;;;;;;;;;;;;;22.78;48.74;100262.25;5059226;28;20403;-82
2023/07/25 04:09:47;;;;;;;;;;;;;;;22.84;48.81;100260.94;5059222;28;19916;-82
2023/07/25 04:12:13;;;;;;;;;;;;;;;22.85;48.57;100270.72;5059241;28;19917;-82
2023/07/25 04:14:39;;;;;;;;;;;;;;;22.84;48.52;100272.66;5061971;28;20382;-82
2023/07/25 04:17:05;;;;;;;;;;;;;;;22.87;48.56;100268.44;5058607;28;20372;-82
2023/07/25 04:19:30;;;;;;;;;;;;;;;22.81;48.57;100267.84;5056422;28;19920;-82
2023/07/25 04:21:55;;;;;;;;;;;;;;;22.80;48.55;100265.44;5058096;28;20410;-82
2023/07/25 04:24:20;;;;;;;;;;;;;;;22.79;48.54;100267.38;5057814;28;20047;-82
2023/07/25 04:26:46;;;;;;;;;;;;;;;22.81;48.81;100261.59;5058980;28;19920;-82
2023/07/25 04:29:11;;;;;;;;;;;;;;;22.82;48.41;100258.56;5061881;28;20000;-83
2023/07/25 04:31:36;;;;;;;;;;;;;;;22.83;48.67;100264.81;5061902;28;20412;-82
2023/07/25 04:34:02;;;;;;;;;;;;;;;22.86;48.64;100259.47;5059786;28;19924;-82
2023/07/25 04:36:28;;;;;;;;;;;;;;;22.90;48.57;100267.75;5064638;28;19956;-82
2023/07/25 04:38:54;;;;;;;;;;;;;;;22.96;48.22;100258.19;5060886;28;19951;-82
2023/07/25 04:41:19;;;;;;;;;;;;;;;23.01;48.16;100263.44;5061921;28;19916;-82
2023/07/25 04:43:45;;;;;;;;;;;;;;;23.04;48.03;100264.69;5060245;28;19924;-83
2023/07/25 04:46:10;;;;;;;;;;;;;;;23.06;47.81;100260.47;5061212;28;19979;-82
2023/07/25 04:48:35;;;;;;;;;;;;;;;23.04;47.89;100272.88;5059504;28;19916;-82
2023/07/25 04:51:00;;;;;;;;;;;;;;;23.00;47.94;100272.78;5062597;28;19973;-83
2023/07/25 04:53:26;;;;;;;;;;;;;;;23.04;47.80;100264.69;5059247;28;19915;-82
2023/07/25 04:55:51;;;;;;;;;;;;;;;23.08;47.47;100268.31;5057992;28;20012;-83
2023/07/25 04:58:16;;;;;;;;;;;;;;;23.06;47.61;100263.19;5055844;28;19917;-82
2023/07/25 05:00:42;;;;;;;;;;;;;;;23.09;47.65;100265.25;5060928;28;21231;-82
2023/07/25 05:03:07;;;;;;;;;;;;;;;23.16;47.67;100262.75;5059666;28;19924;-82
2023/07/25 05:05:32;;;;;;;;;;;;;;;23.18;47.74;100263.19;5055381;28;20021;-82
2023/07/25 05:07:58;;;;;;;;;;;;;;;23.27;47.63;100256.78;5062002;28;20446;-82
2023/07/25 05:10:23;;;;;;;;;;;;;;;23.36;47.42;100255.53;5059542;28;20011;-82
2023/07/25 05:12:48;;;;;;;;;;;;;;;23.44;47.33;100267.44;5058393;28;20293;-83
2023/07/25 05:15:14;;;;;;;;;;;;;;;23.51;47.21;100267.66;5055545;28;19920;-83
2023/07/25 05:17:39;;;;;;;;;;;;;;;23.54;47.03;100266.97;5055875;28;19956;-82
2023/07/25 05:20:04;;;;;;;;;;;;;;;23.61;47.13;100269.13;5055456;28;19989;-83
2023/07/25 05:22:30;;;;;;;;;;;;;;;23.67;47.01;100270.47;5055527;28;20007;-82
2023/07/25 05:24:55;;;;;;;;;;;;;;;23.72;46.74;100268.31;5057712;28;19976;-83
2023/07/25 05:27:20;;;;;;;;;;;;;;;23.75;46.89;100269.56;5057803;28;20359;-83
2023/07/25 05:29:46;;;;;;;;;;;;;;;23.70;46.87;100262.41;5058182;28;20389;-82
2023/07/25 05:32:11;;;;;;;;;;;;;;;23.73;47.00;100253.50;5059302;28;20279;-82
2023/07/25 05:34:37;;;;;;;;;;;;;;;23.83;46.96;100256.84;5059101;28;20372;-83
2023/07/25 05:37:02;;;;;;;;;;;;;;;23.87;46.41;100257.75;5056968;28;19924;-82
2023/07/25 05:39:27;;;;;;;;;;;;;;;23.82;46.48;100253.31;5054010;28;20245;-83
2023/07/25 05:41:53;;;;;;;;;;;;;;;23.78;46.31;100255.16;5060831;28;20464;-84
2023/07/25 05:44:18;;;;;;;;;;;;;;;23.71;46.41;100276.88;5059052;28;20191;-83
2023/07/25 05:46:43;;;;;;;;;;;;;;;23.58;46.27;100256.97;5061649;28;20155;-84
2023/07/25 05:49:08;;;;;;;;;;;;;;;23.55;46.46;100257.63;5057579;28;19917;-83
2023/07/25 05:51:34;;;;;;;;;;;;;;;23.49;46.68;100261.72;5054878;28;20727;-82
2023/07/25 05:53:59;;;;;;;;;;;;;;;23.57;46.80;100260.84;5058135;28;19924;-81
2023/07/25 05:56:24;;;;;;;;;;;;;;;23.65;46.39;100254.41;5061028;28;19935;-83
2023/07/25 05:58:50;;;;;;;;;;;;;;;23.71;46.08;100244.03;5058002;28;19921;-82
2023/07/25 06:01:15;;;;;;;;;;;;;;;23.71;45.86;100250.31;5054395;28;19955;-83
2023/07/25 06:03:40;;;;;;;;;;;;;;;23.73;46.02;100253.50;5062016;28;19935;-83
2023/07/25 06:06:06;;;;;;;;;;;;;;;23.82;45.97;100258.78;5056749;28;20453;-82
2023/07/25 06:08:31;;;;;;;;;;;;;;;23.97;45.75;100254.50;5057627;28;20011;-85
2023/07/25 06:10:56;;;;;;;;;;;;;;;24.09;45.44;100271.66;5056732;28;19920;-83
2023/07/25 06:13:21;;;;;;;;;;;;;;;24.09;45.30;100276.34;5055374;28;20022;-83
2023/07/25 06:15:47;;;;;;;;;;;;;;;24.11;45.33;100285.00;5059619;28;19924;-83
2023/07/25 06:18:12;;;;;;;;;;;;;;;24.04;45.16;100282.84;5060442;28;19978;-82
2023/07/25 06:20:38;;;;;;;;;;;;;;;24.07;45.18;100289.59;5053035;28;20555;-84
2023/07/25 06:23:03;;;;;;;;;;;;;;;24.03;44.69;100294.16;5051525;28;19920;-82
2023/07/25 06:25:29;;;;;;;;;;;;;;;24.01;44.98;100313.66;5053228;28;20403;-83
2023/07/25 06:27:54;;;;;;;;;;;;;;;24.07;45.18;100306.81;5056507;28;19925;-85
2023/07/25 06:30:20;;;;;;;;;;;;;;;24.10;44.99;100308.84;5055326;28;19917;-82
2023/07/25 06:32:45;;;;;;;;;;;;;;;24.16;44.92;100312.13;5059260;28;19924;-82
2023/07/25 06:35:11;;;;;;;;;;;;;;;24.24;44.81;100326.81;5056201;28;19916;-82
2023/07/25 06:37:36;;;;;;;;;;;;;;;24.24;44.67;100346.75;5057841;28;19939;-82
2023/07/25 06:40:03;;;;;;;;;;;;;;;24.28;44.54;100361.34;5054263;28;19956;-82
2023/07/25 06:42:29;;;;;;;;;;;;;;;24.31;44.33;100363.41;5055299;28;19921;-83
2023/07/25 06:44:54;;;;;;;;;;;;;;;24.34;44.39;100364.63;5058015;28;19927;-82
2023/07/25 06:47:20;;;;;;;;;;;;;;;24.41;44.18;100356.59;5053421;28;19916;-82
2023/07/25 06:49:45;;;;;;;;;;;;;;;24.43;44.32;100348.88;5060058;28;19921;-83
2023/07/25 06:52:10;;;;;;;;;;;;;;;24.44;44.00;100353.19;5057519;28;19921;-84
2023/07/25 06:54:37;;;;;;;;;;;;;;;24.41;44.18;100354.66;5056272;28;20394;-84
2023/07/25 06:57:02;;;;;;;;;;;;;;;24.40;44.06;100361.28;5054445;28;19985;-83
2023/07/25 06:59:29;;;;;;;;;;;;;;;24.36;43.67;100354.94;5049786;28;19920;-82
2023/07/25 07:01:55;;;;;;;;;;;;;;;24.38;43.68;100354.56;5058243;28;19974;-83
2023/07/25 07:04:20;;;;;;;;;;;;;;;24.47;43.35;100357.97;5056492;28;19932;-82
2023/07/25 07:06:45;;;;;;;;;;;;;;;24.48;43.36;100358.75;5060623;28;19920;-85
2023/07/25 07:09:10;;;;;;;;;;;;;;;24.49;42.99;100366.63;5052177;28;19920;-88
2023/07/25 07:11:36;;;;;;;;;;;;;;;24.54;42.96;100354.59;5059722;28;19924;-88
2023/07/25 07:14:01;;;;;;;;;;;;;;;24.58;43.26;100352.75;5054568;28;19925;-88
2023/07/25 07:16:26;;;;;;;;;;;;;;;24.75;42.96;100351.63;5064886;28;20324;-87
2023/07/25 07:18:52;;;;;;;;;;;;;;;24.78;42.63;100348.19;5054655;28;19921;-88
2023/07/25 07:21:17;;;;;;;;;;;;;;;24.80;42.86;100349.44;5059291;28;19963;-85
2023/07/25 07:23:42;;;;;;;;;;;;;;;24.92;42.76;100346.56;5056686;28;20151;-85
2023/07/25 07:26:08;;;;;;;;;;;;;;;25.14;42.47;100336.97;5054690;28;20506;-87
2023/07/25 07:28:33;;;;;;;;;;;;;;;25.38;42.34;100346.13;5054039;28;20055;-87
2023/07/25 07:30:58;;;;;;;;;;;;;;;25.45;41.86;100352.56;5058444;28;19924;-86
2023/07/25 07:33:24;;;;;;;;;;;;;;;25.41;41.92;100348.94;5059197;28;20102;-85
2023/07/25 07:35:49;;;;;;;;;;;;;;;25.32;41.19;100342.88;5058193;28;19924;-85
2023/07/25 07:38:14;;;;;;;;;;;;;;;25.25;41.54;100348.97;5052290;28;19921;-85
2023/07/25 07:40:40;;;;;;;;;;;;;;;25.35;41.48;100341.34;5059413;28;20496;-88
2023/07/25 07:43:05;;;;;;;;;;;;;;;25.52;41.59;100341.75;5058490;28;19920;-84
2023/07/25 07:45:31;;;;;;;;;;;;;;;25.73;41.63;100335.97;5061828;28;19928;-85
2023/07/25 07:47:56;;;;;;;;;;;;;;;25.86;40.88;100336.63;5057545;28;19924;-85
2023/07/25 07:50:21;;;;;;;;;;;;;;;25.90;41.07;100329.25;5056931;28;19916;-85
2023/07/25 07:52:47;;;;;;;;;;;;;;;26.07;40.75;100339.78;5062570;28;20019;-84
2023/07/25 07:55:13;;;;;;;;;;;;;;;26.18;39.84;100335.28;5057969;28;20122;-85
2023/07/25 07:57:40;;;;;;;;;;;;;;;26.19;40.50;100327.84;5058267;28;19943;-85
2023/07/25 08:00:06;;;;;;;;;;;;;;;26.20;39.98;100329.44;5061573;28;20284;-85
2023/07/25 08:02:32;;;;;;;;;;;;;;;26.33;40.25;100328.09;5059226;28;19967;-83
2023/07/25 08:04:57;;;;;;;;;;;;;;;26.48;39.86;100331.94;5065905;28;19975;-83
2023/07/25 08:07:22;;;;;;;;;;;;;;;26.39;40.12;100323.13;5060527;28;19959;-82
2023/07/25 08:09:52;;;;;;;;;;;;;;;26.25;39.10;100322.88;5063301;28;20015;-85
2023/07/25 08:12:17;;;;;;;;;;;;;;;26.15;39.70;100336.00;5063985;28;20307;-82
2023/07/25 08:14:43;;;;;;;;;;;;;;;26.15;40.26;100335.22;5065309;28;19917;-83
2023/07/25 08:17:08;;;;;;;;;;;;;;;26.26;40.12;100328.00;5063398;28;19924;-83
2023/07/25 08:19:33;;;;;;;;;;;;;;;26.35;39.45;100327.78;5063343;28;19916;-82
2023/07/25 08:21:59;;;;;;;;;;;;;;;26.41;39.52;100334.56;5059922;28;19920;-83
2023/07/25 08:24:24;;;;;;;;;;;;;;;26.47;39.72;100328.41;5060945;28;20384;-83
2023/07/25 08:26:49;;;;;;;;;;;;;;;26.55;39.20;100325.78;5059985;28;20079;-83
2023/07/25 08:29:15;;;;;;;;;;;;;;;26.59;39.43;100321.94;5067529;28;19924;-81
2023/07/25 08:31:40;;;;;;;;;;;;;;;26.72;39.07;100322.53;5063930;28;20388;-83
2023/07/25 08:34:05;;;;;;;;;;;;;;;26.65;39.03;100325.19;5065425;28;19917;-82
2023/07/25 08:36:30;;;;;;;;;;;;;;;26.66;38.95;100311.06;5065998;28;19925;-82
2023/07/25 08:38:57;;;;;;;;;;;;;;;26.72;38.18;100315.09;5066291;28;20343;-82
2023/07/25 08:41:26;;;;;;;;;;;;;;;26.87;38.58;100312.56;5065371;28;19924;-83
2023/07/25 08:43:52;;;;;;;;;;;;;;;27.06;38.55;100307.00;5061534;28;20143;-83
2023/07/25 08:46:19;;;;;;;;;;;;;;;27.31;38.24;100318.41;5060909;28;19920;-83
2023/07/25 08:48:44;;;;;;;;;;;;;;;27.43;37.72;100309.91;5059110;28;19991;-83
2023/07/25 08:51:20;;;;;;;;;;;;;;;27.39;37.79;100320.06;5057998;28;19928;-83
2023/07/25 08:53:56;;;;;;;;;;;;;;;27.20;38.00;100312.72;5056631;28;20050;-82
2023/07/25 08:56:22;;;;;;;;;;;;;;;27.13;38.00;100317.34;5057964;28;19920;-82
2023/07/25 08:58:47;;;;;;;;;;;;;;;27.21;37.91;100319.81;5056976;28;19916;-82
2023/07/25 09:01:13;;;;;;;;;;;;;;;27.36;38.08;100324.34;5058854;28;19921;-82
2023/07/25 09:03:39;;;;;;;;;;;;;;;27.63;37.55;100324.34;5055777;28;19978;-84
2023/07/25 09:06:05;;;;;;;;;;;;;;;27.85;37.17;100326.22;5062599;28;19916;-84
2023/07/25 09:08:30;;;;;;;;;;;;;;;27.90;35.88;100317.63;5065224;28;19924;-83
2023/07/25 09:10:57;;;;;;;;;;;;;;;27.90;36.22;100325.09;5059312;28;20015;-83
2023/07/25 09:13:23;;;;;;;;;;;;;;;27.84;36.21;100324.63;5060921;28;19960;-82
2023/07/25 09:15:48;;;;;;;;;;;;;;;27.83;35.78;100325.81;5065000;28;19955;-82
2023/07/25 09:18:13;;;;;;;;;;;;;;;27.98;36.41;100327.53;5063097;28;19924;-81
2023/07/25 09:20:39;;;;;;;;;;;;;;;28.05;35.81;100340.59;5061522;28;21355;-82
2023/07/25 09:23:04;;;;;;;;;;;;;;;28.08;35.88;100336.31;5061009;28;19917;-83
2023/07/25 09:25:30;;;;;;;;;;;;;;;28.33;36.10;100326.38;5062806;28;19932;-82
2023/07/25 09:27:55;;;;;;;;;;;;;;;28.53;35.34;100333.25;5064303;28;19998;-84
2023/07/25 09:30:25;;;;;;;;;;;;;;;28.52;34.87;100339.13;5064168;28;20024;-82
2023/07/25 09:32:50;;;;;;;;;;;;;;;28.39;34.37;100343.38;5073852;28;19917;-83
2023/07/25 09:35:15;;;;;;;;;;;;;;;28.34;35.62;100352.75;5060772;28;19923;-82
2023/07/25 09:37:41;;;;;;;;;;;;;;;28.34;35.66;100344.47;5062576;28;20463;-83
2023/07/25 09:40:12;;;;;;;;;;;;;;;28.50;35.61;100342.28;5063458;28;20339;-83
2023/07/25 09:42:41;;;;;;;;;;;;;;;28.79;35.40;100337.03;5063302;28;19917;-83
2023/07/25 09:45:07;;;;;;;;;;;;;;;29.02;34.92;100326.59;5062184;28;20372;-82
2023/07/25 09:47:33;;;;;;;;;;;;;;;29.13;34.44;100326.69;5065078;28;19932;-83
2023/07/25 09:49:58;;;;;;;;;;;;;;;29.14;34.59;100326.31;5062635;28;19920;-83
2023/07/25 09:52:23;;;;;;;;;;;;;;;29.07;33.47;100322.69;5060946;28;19924;-83
2023/07/25 09:54:49;;;;;;;;;;;;;;;29.02;34.28;100326.59;5060701;28;20292;-82
2023/07/25 09:57:15;;;;;;;;;;;;;;;28.99;33.85;100321.06;5062176;28;19920;-82
2023/07/25 09:59:42;;;;;;;;;;;;;;;29.06;33.56;100321.91;5055967;28;20358;-83
2023/07/25 10:02:08;;;;;;;;;;;;;;;29.14;33.83;100326.31;5057656;28;19920;-82
2023/07/25 10:04:36;;;;;;;;;;;;;;;29.32;33.46;100323.66;5061475;28;20010;-82
2023/07/25 10:07:01;;;;;;;;;;;;;;;29.49;32.89;100327.72;5061372;28;19931;-82
2023/07/25 10:09:26;;;;;;;;;;;;;;;29.65;33.24;100336.47;5060064;28;20421;-81
2023/07/25 10:11:52;;;;;;;;;;;;;;;29.77;32.39;100330.59;5058474;28;20288;-81
2023/07/25 10:14:18;;;;;;;;;;;;;;;29.84;32.64;100321.56;5077684;28;20293;-82
2023/07/25 10:16:43;;;;;;;;;;;;;;;29.87;32.10;100337.38;5061172;28;19920;-84
2023/07/25 10:19:08;;;;;;;;;;;;;;;29.93;32.11;100321.19;5057722;28;20115;-82
2023/07/25 10:21:50;;;;;;;;;;;;;;;30.06;30.61;100322.47;5057337;28;19916;-82
2023/07/25 10:24:16;;;;;;;;;;;;;;;30.41;32.06;100315.44;5062337;28;20023;-84
2023/07/25 10:26:54;;;;;;;;;;;;;;;30.64;29.65;100313.09;5059623;28;20140;-82
2023/07/25 10:29:38;;;;;;;;;;;;;;;30.63;31.65;100319.81;5055485;28;20342;-84
2023/07/25 10:32:04;;;;;;;;;;;;;;;30.44;31.20;100320.16;5060027;28;20415;-83
2023/07/25 10:34:47;;;;;;;;;;;;;;;30.19;29.99;100320.91;5053867;28;19917;-83
2023/07/25 10:37:20;;;;;;;;;;;;;;;30.27;31.53;100313.44;5055454;28;19928;-82
2023/07/25 10:39:45;;;;;;;;;;;;;;;30.47;31.27;100311.88;5060516;28;19957;-83
2023/07/25 10:42:17;;;;;;;;;;;;;;;30.64;29.92;100321.41;5063371;28;20388;-83
2023/07/25 10:44:42;;;;;;;;;;;;;;;30.88;31.17;100325.34;5056600;28;19928;-82
2023/07/25 10:47:26;;;;;;;;;;;;;;;31.08;30.58;100315.47;5060932;28;20490;-83
2023/07/25 10:49:55;;;;;;;;;;;;;;;31.09;29.83;100327.31;5053669;28;19983;-83
2023/07/25 10:52:39;;;;;;;;;;;;;;;30.96;29.74;100324.94;5056964;28;20008;-83
2023/07/25 10:55:05;;;;;;;;;;;;;;;30.83;30.28;100334.03;5054922;28;19924;-82
2023/07/25 10:57:30;;;;;;;;;;;;;;;30.94;28.57;100321.78;5058599;28;19916;-83
2023/07/25 10:59:58;;;;;;;;;;;;;;;30.99;29.67;100328.91;5057030;28;20019;-83
2023/07/25 11:02:27;;;;;;;;;;;;;;;31.01;29.36;100320.97;5060172;28;19924;-82
2023/07/25 11:05:13;;;;;;;;;;;;;;;30.84;29.19;100327.31;5057199;28;19924;-82
2023/07/25 11:07:38;;;;;;;;;;;;;;;30.77;30.28;100333.66;5060446;28;19920;-82
2023/07/25 11:10:04;;;;;;;;;;;;;;;30.78;29.63;100320.63;5057138;28;19917;-81
2023/07/25 11:12:30;;;;;;;;;;;;;;;30.78;29.70;100324.16;5058259;28;19923;-81
2023/07/25 11:14:55;;;;;;;;;;;;;;;31.00;29.92;100321.38;5065856;28;19990;-81
2023/07/25 11:17:26;;;;;;;;;;;;;;;31.30;29.41;100321.75;5065972;28;19939;-82
2023/07/25 11:19:51;;;;;;;;;;;;;;;31.30;28.73;100319.00;5067763;28;19923;-81
2023/07/25 11:22:17;;;;;;;;;;;;;;;31.27;28.55;100311.50;5063388;28;19928;-83
2023/07/25 11:24:43;;;;;;;;;;;;;;;31.34;29.09;100310.69;5061284;28;19978;-83
2023/07/25 11:27:08;;;;;;;;;;;;;;;31.56;28.78;100315.75;5066788;28;19989;-82
2023/07/25 11:29:34;;;;;;;;;;;;;;;31.81;28.84;100314.91;5063609;28;20342;-82
2023/07/25 11:32:00;;;;;;;;;;;;;;;31.98;27.36;100316.78;5061663;28;20574;-82
2023/07/25 11:34:25;;;;;;;;;;;;;;;31.94;28.00;100304.91;5062451;28;19923;-83
2023/07/25 11:36:51;;;;;;;;;;;;;;;32.05;28.19;100307.63;5065104;28;20459;-82
2023/07/25 11:39:17;;;;;;;;;;;;;;;32.08;28.00;100315.94;5068612;28;19935;-82
2023/07/25 11:41:44;;;;;;;;;;;;;;;31.99;27.79;100310.06;5062215;28;20465;-83
2023/07/25 11:44:10;;;;;;;;;;;;;;;31.88;27.63;100303.78;5065942;28;19932;-83
2023/07/25 11:46:40;;;;;;;;;;;;;;;31.76;27.24;100298.69;5054515;28;20019;-82
2023/07/25 11:49:06;;;;;;;;;;;;;;;31.75;27.88;100303.44;5060085;28;20303;-84
2023/07/25 11:51:32;;;;;;;;;;;;;;;31.80;26.83;100305.00;5066231;28;19924;-82
2023/07/25 11:53:58;;;;;;;;;;;;;;;32.00;27.62;100300.53;5062234;28;19917;-83
2023/07/25 11:56:23;;;;;;;;;;;;;;;32.25;27.83;100289.28;5065924;28;19920;-82
2023/07/25 11:58:49;;;;;;;;;;;;;;;32.45;27.09;100295.91;5061105;28;20107;-82
2023/07/25 12:01:15;;;;;;;;;;;;;;;32.39;26.91;100299.53;5061602;28;19924;-82
2023/07/25 12:03:47;;;;;;;;;;;;;;;32.16;27.55;100300.06;5067725;28;19990;-83
2023/07/25 12:06:13;;;;;;;;;;;;;;;32.02;27.67;100298.16;5058328;28;19924;-81
2023/07/25 12:08:42;;;;;;;;;;;;;;;31.94;26.82;100295.81;5061618;28;19927;-84
2023/07/25 12:11:08;;;;;;;;;;;;;;;31.88;26.78;100292.69;5063274;28;19920;-84
2023/07/25 12:13:46;;;;;;;;;;;;;;;31.90;27.89;100295.84;5061451;28;20423;-83
2023/07/25 12:16:24;;;;;;;;;;;;;;;31.70;26.02;100298.28;5066413;28;20810;-82
2023/07/25 12:18:55;;;;;;;;;;;;;;;31.63;27.10;100300.31;5061656;28;19920;-82
2023/07/25 12:21:22;;;;;;;;;;;;;;;31.49;26.88;100299.16;5063049;28;20217;-81
2023/07/25 12:23:51;;;;;;;;;;;;;;;31.40;26.33;100292.47;5057733;28;19920;-81
2023/07/25 12:26:20;;;;;;;;;;;;;;;31.30;26.18;100287.75;5064046;28;20398;-82
2023/07/25 12:28:45;;;;;;;;;;;;;;;31.31;26.70;100283.81;5056094;28;20521;-82